sensor_id;sensor_type;location;lat;lon;timestamp;P1;durP1;ratioP1;P2;durP2;ratioP2
3573;SDS011;1801;51.050;6.246;2023-07-31T00:02:21;10.73;;;4.53;;
3573;SDS011;1801;51.050;6.246;2023-07-31T00:04:49;12.23;;;4.93;;
3573;SDS011;1801;51.050;6.246;2023-07-31T00:07:14;8.23;;;3.77;;
3573;SDS011;1801;51.050;6.246;2023-07-31T00:09:39;13.50;;;3.83;;
3573;SDS011;1801;51.050;6.246;2023-07-31T00:12:05;9.40;;;3.10;;
3573;SDS011;1801;51.050;6.246;2023-07-31T00:14:30;11.07;;;3.60;;
3573;SDS011;1801;51.050;6.246;2023-07-31T00:16:55;8.77;;;4.23;;
3573;SDS011;1801;51.050;6.246;2023-07-31T00:19:20;16.33;;;4.47;;
3573;SDS011;1801;51.050;6.246;2023-07-31T00:21:45;8.37;;;3.57;;
3573;SDS011;1801;51.050;6.246;2023-07-31T00:24:11;9.43;;;4.23;;
3573;SDS011;1801;51.050;6.246;2023-07-31T00:26:36;10.10;;;3.90;;
3573;SDS011;1801;51.050;6.246;2023-07-31T00:29:01;14.43;;;4.27;;
3573;SDS011;1801;51.050;6.246;2023-07-31T00:31:26;11.07;;;3.90;;
3573;SDS011;1801;51.050;6.246;2023-07-31T00:33:51;14.10;;;4.03;;
3573;SDS011;1801;51.050;6.246;2023-07-31T00:36:16;16.77;;;3.90;;
3573;SDS011;1801;51.050;6.246;2023-07-31T00:38:43;15.40;;;4.20;;
3573;SDS011;1801;51.050;6.246;2023-07-31T00:41:08;6.77;;;2.87;;
3573;SDS011;1801;51.050;6.246;2023-07-31T00:43:33;8.60;;;3.10;;
3573;SDS011;1801;51.050;6.246;2023-07-31T00:45:58;11.33;;;2.63;;
3573;SDS011;1801;51.050;6.246;2023-07-31T00:48:23;15.43;;;3.77;;
3573;SDS011;1801;51.050;6.246;2023-07-31T00:50:48;8.73;;;4.03;;
3573;SDS011;1801;51.050;6.246;2023-07-31T00:53:14;14.57;;;3.57;;
3573;SDS011;1801;51.050;6.246;2023-07-31T00:55:39;7.73;;;3.17;;
3573;SDS011;1801;51.050;6.246;2023-07-31T00:58:04;13.90;;;3.63;;
3573;SDS011;1801;51.050;6.246;2023-07-31T01:00:30;9.00;;;3.63;;
3573;SDS011;1801;51.050;6.246;2023-07-31T01:02:55;11.10;;;2.77;;
3573;SDS011;1801;51.050;6.246;2023-07-31T01:05:22;17.03;;;4.20;;
3573;SDS011;1801;51.050;6.246;2023-07-31T01:07:57;14.87;;;4.13;;
3573;SDS011;1801;51.050;6.246;2023-07-31T01:10:26;11.27;;;4.20;;
3573;SDS011;1801;51.050;6.246;2023-07-31T01:12:53;7.27;;;3.20;;
3573;SDS011;1801;51.050;6.246;2023-07-31T01:15:18;14.03;;;5.03;;
3573;SDS011;1801;51.050;6.246;2023-07-31T01:17:44;6.60;;;3.73;;
3573;SDS011;1801;51.050;6.246;2023-07-31T01:20:13;13.87;;;3.93;;
3573;SDS011;1801;51.050;6.246;2023-07-31T01:27:55;10.63;;;4.57;;
3573;SDS011;1801;51.050;6.246;2023-07-31T01:30:23;13.00;;;3.77;;
3573;SDS011;1801;51.050;6.246;2023-07-31T01:32:50;19.37;;;4.10;;
3573;SDS011;1801;51.050;6.246;2023-07-31T01:35:16;12.73;;;4.63;;
3573;SDS011;1801;51.050;6.246;2023-07-31T01:37:41;8.33;;;3.93;;
3573;SDS011;1801;51.050;6.246;2023-07-31T01:40:08;14.10;;;3.73;;
3573;SDS011;1801;51.050;6.246;2023-07-31T01:42:33;11.10;;;3.60;;
3573;SDS011;1801;51.050;6.246;2023-07-31T01:44:58;9.87;;;3.83;;
3573;SDS011;1801;51.050;6.246;2023-07-31T01:47:23;11.47;;;5.20;;
3573;SDS011;1801;51.050;6.246;2023-07-31T01:49:49;9.27;;;4.40;;
3573;SDS011;1801;51.050;6.246;2023-07-31T01:52:14;8.87;;;3.37;;
3573;SDS011;1801;51.050;6.246;2023-07-31T01:54:39;32.47;;;5.37;;
3573;SDS011;1801;51.050;6.246;2023-07-31T01:57:04;11.47;;;4.40;;
3573;SDS011;1801;51.050;6.246;2023-07-31T01:59:30;10.07;;;3.47;;
3573;SDS011;1801;51.050;6.246;2023-07-31T02:01:55;18.80;;;3.87;;
3573;SDS011;1801;51.050;6.246;2023-07-31T02:04:20;13.17;;;4.43;;
3573;SDS011;1801;51.050;6.246;2023-07-31T02:06:45;13.83;;;3.90;;
3573;SDS011;1801;51.050;6.246;2023-07-31T02:09:10;10.57;;;4.13;;
3573;SDS011;1801;51.050;6.246;2023-07-31T02:11:35;14.23;;;3.67;;
3573;SDS011;1801;51.050;6.246;2023-07-31T02:14:01;13.10;;;4.50;;
3573;SDS011;1801;51.050;6.246;2023-07-31T02:16:26;11.30;;;3.60;;
3573;SDS011;1801;51.050;6.246;2023-07-31T02:18:51;11.57;;;4.57;;
3573;SDS011;1801;51.050;6.246;2023-07-31T02:21:16;8.97;;;3.90;;
3573;SDS011;1801;51.050;6.246;2023-07-31T02:23:41;11.07;;;3.90;;
3573;SDS011;1801;51.050;6.246;2023-07-31T02:26:07;8.40;;;3.83;;
3573;SDS011;1801;51.050;6.246;2023-07-31T02:28:32;15.70;;;4.20;;
3573;SDS011;1801;51.050;6.246;2023-07-31T02:30:57;17.20;;;4.20;;
3573;SDS011;1801;51.050;6.246;2023-07-31T02:33:22;8.33;;;3.83;;
3573;SDS011;1801;51.050;6.246;2023-07-31T02:35:47;12.63;;;4.20;;
3573;SDS011;1801;51.050;6.246;2023-07-31T02:38:13;6.23;;;3.50;;
3573;SDS011;1801;51.050;6.246;2023-07-31T02:40:39;7.97;;;3.70;;
3573;SDS011;1801;51.050;6.246;2023-07-31T02:43:04;18.03;;;4.33;;
3573;SDS011;1801;51.050;6.246;2023-07-31T02:45:29;7.30;;;3.97;;
3573;SDS011;1801;51.050;6.246;2023-07-31T02:47:55;9.70;;;3.80;;
3573;SDS011;1801;51.050;6.246;2023-07-31T02:50:20;8.33;;;3.80;;
3573;SDS011;1801;51.050;6.246;2023-07-31T02:52:45;11.10;;;3.20;;
3573;SDS011;1801;51.050;6.246;2023-07-31T02:55:10;10.93;;;4.67;;
3573;SDS011;1801;51.050;6.246;2023-07-31T02:57:36;12.23;;;4.23;;
3573;SDS011;1801;51.050;6.246;2023-07-31T03:00:01;14.70;;;4.83;;
3573;SDS011;1801;51.050;6.246;2023-07-31T03:02:27;14.57;;;4.13;;
3573;SDS011;1801;51.050;6.246;2023-07-31T03:04:52;12.67;;;3.43;;
3573;SDS011;1801;51.050;6.246;2023-07-31T03:07:17;18.70;;;4.93;;
3573;SDS011;1801;51.050;6.246;2023-07-31T03:09:42;7.30;;;4.07;;
3573;SDS011;1801;51.050;6.246;2023-07-31T03:12:08;10.83;;;3.87;;
3573;SDS011;1801;51.050;6.246;2023-07-31T03:14:33;15.33;;;4.40;;
3573;SDS011;1801;51.050;6.246;2023-07-31T03:16:59;15.37;;;4.80;;
3573;SDS011;1801;51.050;6.246;2023-07-31T03:19:24;7.60;;;4.70;;
3573;SDS011;1801;51.050;6.246;2023-07-31T03:21:49;11.63;;;4.43;;
3573;SDS011;1801;51.050;6.246;2023-07-31T03:24:14;8.03;;;4.40;;
3573;SDS011;1801;51.050;6.246;2023-07-31T03:26:39;11.90;;;4.00;;
3573;SDS011;1801;51.050;6.246;2023-07-31T03:29:06;10.47;;;4.47;;
3573;SDS011;1801;51.050;6.246;2023-07-31T03:31:31;12.00;;;4.27;;
3573;SDS011;1801;51.050;6.246;2023-07-31T03:33:56;16.93;;;4.40;;
3573;SDS011;1801;51.050;6.246;2023-07-31T03:36:22;9.10;;;4.90;;
3573;SDS011;1801;51.050;6.246;2023-07-31T03:38:47;8.83;;;4.23;;
3573;SDS011;1801;51.050;6.246;2023-07-31T03:41:12;12.83;;;4.60;;
3573;SDS011;1801;51.050;6.246;2023-07-31T03:43:37;7.77;;;4.17;;
3573;SDS011;1801;51.050;6.246;2023-07-31T03:46:03;13.30;;;4.23;;
3573;SDS011;1801;51.050;6.246;2023-07-31T03:48:28;11.27;;;4.63;;
3573;SDS011;1801;51.050;6.246;2023-07-31T03:50:53;9.20;;;4.37;;
3573;SDS011;1801;51.050;6.246;2023-07-31T03:53:19;9.80;;;4.40;;
3573;SDS011;1801;51.050;6.246;2023-07-31T03:55:44;16.17;;;5.00;;
3573;SDS011;1801;51.050;6.246;2023-07-31T03:58:09;7.30;;;4.27;;
3573;SDS011;1801;51.050;6.246;2023-07-31T04:00:34;15.33;;;5.07;;
3573;SDS011;1801;51.050;6.246;2023-07-31T04:03:00;16.50;;;4.93;;
3573;SDS011;1801;51.050;6.246;2023-07-31T04:05:25;10.73;;;4.30;;
3573;SDS011;1801;51.050;6.246;2023-07-31T04:07:51;9.73;;;4.63;;
3573;SDS011;1801;51.050;6.246;2023-07-31T04:10:16;11.97;;;5.10;;
3573;SDS011;1801;51.050;6.246;2023-07-31T04:12:41;9.57;;;4.70;;
3573;SDS011;1801;51.050;6.246;2023-07-31T04:15:06;11.50;;;4.93;;
3573;SDS011;1801;51.050;6.246;2023-07-31T04:17:32;8.17;;;4.53;;
3573;SDS011;1801;51.050;6.246;2023-07-31T04:19:57;7.37;;;4.23;;
3573;SDS011;1801;51.050;6.246;2023-07-31T04:22:22;14.30;;;4.73;;
3573;SDS011;1801;51.050;6.246;2023-07-31T04:24:47;11.50;;;4.53;;
3573;SDS011;1801;51.050;6.246;2023-07-31T04:27:12;14.63;;;4.60;;
3573;SDS011;1801;51.050;6.246;2023-07-31T04:29:38;8.87;;;3.63;;
3573;SDS011;1801;51.050;6.246;2023-07-31T04:32:04;9.40;;;5.30;;
3573;SDS011;1801;51.050;6.246;2023-07-31T04:34:30;11.80;;;4.00;;
3573;SDS011;1801;51.050;6.246;2023-07-31T04:36:55;15.30;;;4.60;;
3573;SDS011;1801;51.050;6.246;2023-07-31T04:39:20;9.10;;;3.80;;
3573;SDS011;1801;51.050;6.246;2023-07-31T04:41:45;11.23;;;4.30;;
3573;SDS011;1801;51.050;6.246;2023-07-31T04:44:10;12.23;;;4.23;;
3573;SDS011;1801;51.050;6.246;2023-07-31T04:46:36;8.07;;;4.70;;
3573;SDS011;1801;51.050;6.246;2023-07-31T04:49:02;8.80;;;4.27;;
3573;SDS011;1801;51.050;6.246;2023-07-31T04:51:27;13.13;;;5.57;;
3573;SDS011;1801;51.050;6.246;2023-07-31T04:53:53;8.13;;;3.80;;
3573;SDS011;1801;51.050;6.246;2023-07-31T04:56:18;14.80;;;5.13;;
3573;SDS011;1801;51.050;6.246;2023-07-31T04:58:43;8.80;;;4.37;;
3573;SDS011;1801;51.050;6.246;2023-07-31T05:01:08;14.77;;;4.70;;
3573;SDS011;1801;51.050;6.246;2023-07-31T05:03:33;9.17;;;4.10;;
3573;SDS011;1801;51.050;6.246;2023-07-31T05:05:59;10.77;;;4.33;;
3573;SDS011;1801;51.050;6.246;2023-07-31T05:08:24;8.80;;;5.33;;
3573;SDS011;1801;51.050;6.246;2023-07-31T05:10:49;7.77;;;4.20;;
3573;SDS011;1801;51.050;6.246;2023-07-31T05:13:15;6.97;;;3.07;;
3573;SDS011;1801;51.050;6.246;2023-07-31T05:15:42;8.80;;;4.73;;
3573;SDS011;1801;51.050;6.246;2023-07-31T05:18:07;8.43;;;3.57;;
3573;SDS011;1801;51.050;6.246;2023-07-31T05:20:32;10.37;;;3.70;;
3573;SDS011;1801;51.050;6.246;2023-07-31T05:22:58;9.60;;;3.97;;
3573;SDS011;1801;51.050;6.246;2023-07-31T05:25:23;10.07;;;4.70;;
3573;SDS011;1801;51.050;6.246;2023-07-31T05:27:48;6.90;;;4.27;;
3573;SDS011;1801;51.050;6.246;2023-07-31T05:30:13;10.70;;;5.80;;
3573;SDS011;1801;51.050;6.246;2023-07-31T05:32:38;7.00;;;3.03;;
3573;SDS011;1801;51.050;6.246;2023-07-31T05:35:04;10.43;;;4.67;;
3573;SDS011;1801;51.050;6.246;2023-07-31T05:37:29;11.60;;;4.60;;
3573;SDS011;1801;51.050;6.246;2023-07-31T05:39:54;12.20;;;5.30;;
3573;SDS011;1801;51.050;6.246;2023-07-31T05:42:20;13.20;;;4.23;;
3573;SDS011;1801;51.050;6.246;2023-07-31T05:44:45;10.37;;;4.00;;
3573;SDS011;1801;51.050;6.246;2023-07-31T05:47:10;16.40;;;4.00;;
3573;SDS011;1801;51.050;6.246;2023-07-31T05:49:35;8.33;;;4.60;;
3573;SDS011;1801;51.050;6.246;2023-07-31T05:52:01;7.70;;;3.40;;
3573;SDS011;1801;51.050;6.246;2023-07-31T05:54:26;16.27;;;4.40;;
3573;SDS011;1801;51.050;6.246;2023-07-31T05:56:51;10.70;;;3.70;;
3573;SDS011;1801;51.050;6.246;2023-07-31T05:59:16;10.17;;;3.77;;
3573;SDS011;1801;51.050;6.246;2023-07-31T06:01:41;10.20;;;4.30;;
3573;SDS011;1801;51.050;6.246;2023-07-31T06:04:07;23.13;;;3.83;;
3573;SDS011;1801;51.050;6.246;2023-07-31T06:06:32;9.00;;;3.93;;
3573;SDS011;1801;51.050;6.246;2023-07-31T06:08:57;13.27;;;5.50;;
3573;SDS011;1801;51.050;6.246;2023-07-31T06:11:22;13.17;;;3.97;;
3573;SDS011;1801;51.050;6.246;2023-07-31T06:13:48;12.07;;;4.00;;
3573;SDS011;1801;51.050;6.246;2023-07-31T06:16:14;6.60;;;3.57;;
3573;SDS011;1801;51.050;6.246;2023-07-31T06:18:39;8.37;;;3.67;;
3573;SDS011;1801;51.050;6.246;2023-07-31T06:21:04;6.50;;;3.43;;
3573;SDS011;1801;51.050;6.246;2023-07-31T06:23:30;9.50;;;3.80;;
3573;SDS011;1801;51.050;6.246;2023-07-31T06:25:55;6.00;;;3.60;;
3573;SDS011;1801;51.050;6.246;2023-07-31T06:28:20;8.23;;;3.53;;
3573;SDS011;1801;51.050;6.246;2023-07-31T06:30:45;8.70;;;3.47;;
3573;SDS011;1801;51.050;6.246;2023-07-31T06:33:10;7.63;;;3.17;;
3573;SDS011;1801;51.050;6.246;2023-07-31T06:35:36;7.60;;;3.43;;
3573;SDS011;1801;51.050;6.246;2023-07-31T06:38:01;6.80;;;4.00;;
3573;SDS011;1801;51.050;6.246;2023-07-31T06:40:27;8.00;;;3.90;;
3573;SDS011;1801;51.050;6.246;2023-07-31T06:42:52;7.67;;;3.70;;
3573;SDS011;1801;51.050;6.246;2023-07-31T06:45:18;9.30;;;3.63;;
3573;SDS011;1801;51.050;6.246;2023-07-31T06:47:43;6.57;;;3.20;;
3573;SDS011;1801;51.050;6.246;2023-07-31T06:50:08;7.87;;;3.50;;
3573;SDS011;1801;51.050;6.246;2023-07-31T06:52:33;4.70;;;2.67;;
3573;SDS011;1801;51.050;6.246;2023-07-31T06:57:28;11.40;;;3.73;;
3573;SDS011;1801;51.050;6.246;2023-07-31T06:59:53;11.07;;;3.57;;
3573;SDS011;1801;51.050;6.246;2023-07-31T07:02:18;9.23;;;3.57;;
3573;SDS011;1801;51.050;6.246;2023-07-31T07:04:43;5.90;;;3.03;;
3573;SDS011;1801;51.050;6.246;2023-07-31T07:07:08;9.90;;;3.70;;
3573;SDS011;1801;51.050;6.246;2023-07-31T07:09:33;12.23;;;4.00;;
3573;SDS011;1801;51.050;6.246;2023-07-31T07:11:59;7.70;;;3.30;;
3573;SDS011;1801;51.050;6.246;2023-07-31T07:14:24;8.23;;;3.60;;
3573;SDS011;1801;51.050;6.246;2023-07-31T07:16:52;8.60;;;5.30;;
3573;SDS011;1801;51.050;6.246;2023-07-31T07:19:17;7.07;;;3.13;;
3573;SDS011;1801;51.050;6.246;2023-07-31T07:21:42;9.97;;;3.97;;
3573;SDS011;1801;51.050;6.246;2023-07-31T07:24:07;6.13;;;3.20;;
3573;SDS011;1801;51.050;6.246;2023-07-31T07:26:33;10.40;;;4.20;;
3573;SDS011;1801;51.050;6.246;2023-07-31T07:28:58;10.53;;;4.60;;
3573;SDS011;1801;51.050;6.246;2023-07-31T07:31:23;6.97;;;3.87;;
3573;SDS011;1801;51.050;6.246;2023-07-31T07:33:48;7.80;;;3.53;;
3573;SDS011;1801;51.050;6.246;2023-07-31T07:36:14;12.60;;;3.40;;
3573;SDS011;1801;51.050;6.246;2023-07-31T07:38:39;6.27;;;3.20;;
3573;SDS011;1801;51.050;6.246;2023-07-31T07:41:04;5.50;;;2.80;;
3573;SDS011;1801;51.050;6.246;2023-07-31T07:43:29;10.97;;;3.20;;
3573;SDS011;1801;51.050;6.246;2023-07-31T07:45:54;9.17;;;3.60;;
3573;SDS011;1801;51.050;6.246;2023-07-31T07:48:20;7.27;;;3.20;;
3573;SDS011;1801;51.050;6.246;2023-07-31T07:50:45;9.13;;;4.07;;
3573;SDS011;1801;51.050;6.246;2023-07-31T07:53:10;6.73;;;3.63;;
3573;SDS011;1801;51.050;6.246;2023-07-31T07:55:35;6.73;;;3.30;;
3573;SDS011;1801;51.050;6.246;2023-07-31T07:58:00;7.17;;;2.83;;
3573;SDS011;1801;51.050;6.246;2023-07-31T08:00:26;15.00;;;4.27;;
3573;SDS011;1801;51.050;6.246;2023-07-31T08:02:51;5.70;;;2.97;;
3573;SDS011;1801;51.050;6.246;2023-07-31T08:05:16;11.37;;;3.70;;
3573;SDS011;1801;51.050;6.246;2023-07-31T08:07:42;6.63;;;4.13;;
3573;SDS011;1801;51.050;6.246;2023-07-31T08:10:07;9.33;;;4.10;;
3573;SDS011;1801;51.050;6.246;2023-07-31T08:12:33;11.57;;;3.83;;
3573;SDS011;1801;51.050;6.246;2023-07-31T08:14:58;5.70;;;4.00;;
3573;SDS011;1801;51.050;6.246;2023-07-31T08:17:25;5.80;;;3.67;;
3573;SDS011;1801;51.050;6.246;2023-07-31T08:19:50;6.20;;;3.67;;
3573;SDS011;1801;51.050;6.246;2023-07-31T08:22:15;10.00;;;3.17;;
3573;SDS011;1801;51.050;6.246;2023-07-31T08:24:40;12.57;;;3.70;;
3573;SDS011;1801;51.050;6.246;2023-07-31T08:27:06;4.73;;;3.33;;
3573;SDS011;1801;51.050;6.246;2023-07-31T08:29:31;6.70;;;3.20;;
3573;SDS011;1801;51.050;6.246;2023-07-31T08:31:56;5.00;;;2.63;;
3573;SDS011;1801;51.050;6.246;2023-07-31T08:34:22;13.90;;;3.83;;
3573;SDS011;1801;51.050;6.246;2023-07-31T08:36:47;9.37;;;3.50;;
3573;SDS011;1801;51.050;6.246;2023-07-31T08:39:12;6.80;;;3.90;;
3573;SDS011;1801;51.050;6.246;2023-07-31T08:41:38;7.97;;;3.10;;
3573;SDS011;1801;51.050;6.246;2023-07-31T08:44:04;6.47;;;3.13;;
3573;SDS011;1801;51.050;6.246;2023-07-31T08:46:29;10.60;;;3.67;;
3573;SDS011;1801;51.050;6.246;2023-07-31T08:48:55;6.27;;;3.33;;
3573;SDS011;1801;51.050;6.246;2023-07-31T08:51:20;5.93;;;3.53;;
3573;SDS011;1801;51.050;6.246;2023-07-31T08:53:45;8.93;;;3.23;;
3573;SDS011;1801;51.050;6.246;2023-07-31T08:56:11;9.60;;;3.73;;
3573;SDS011;1801;51.050;6.246;2023-07-31T08:58:36;7.80;;;3.90;;
3573;SDS011;1801;51.050;6.246;2023-07-31T09:01:03;9.03;;;4.03;;
3573;SDS011;1801;51.050;6.246;2023-07-31T09:03:28;6.07;;;3.37;;
3573;SDS011;1801;51.050;6.246;2023-07-31T09:05:56;5.93;;;3.33;;
3573;SDS011;1801;51.050;6.246;2023-07-31T09:08:21;5.97;;;3.00;;
3573;SDS011;1801;51.050;6.246;2023-07-31T09:10:47;6.87;;;3.27;;
3573;SDS011;1801;51.050;6.246;2023-07-31T09:13:13;4.67;;;2.37;;
3573;SDS011;1801;51.050;6.246;2023-07-31T09:15:38;7.03;;;3.13;;
3573;SDS011;1801;51.050;6.246;2023-07-31T09:18:05;7.10;;;4.03;;
3573;SDS011;1801;51.050;6.246;2023-07-31T09:20:30;6.00;;;2.83;;
3573;SDS011;1801;51.050;6.246;2023-07-31T09:22:56;9.67;;;2.83;;
3573;SDS011;1801;51.050;6.246;2023-07-31T09:25:29;9.50;;;3.10;;
3573;SDS011;1801;51.050;6.246;2023-07-31T09:27:56;10.33;;;3.10;;
3573;SDS011;1801;51.050;6.246;2023-07-31T09:30:22;8.20;;;4.43;;
3573;SDS011;1801;51.050;6.246;2023-07-31T09:32:48;9.87;;;3.80;;
3573;SDS011;1801;51.050;6.246;2023-07-31T09:37:41;8.10;;;2.80;;
3573;SDS011;1801;51.050;6.246;2023-07-31T09:40:07;7.27;;;3.77;;
3573;SDS011;1801;51.050;6.246;2023-07-31T09:42:32;5.53;;;3.13;;
3573;SDS011;1801;51.050;6.246;2023-07-31T09:45:08;8.80;;;3.53;;
3573;SDS011;1801;51.050;6.246;2023-07-31T09:47:34;13.00;;;3.67;;
3573;SDS011;1801;51.050;6.246;2023-07-31T09:49:59;5.07;;;3.27;;
3573;SDS011;1801;51.050;6.246;2023-07-31T09:52:26;7.43;;;3.47;;
3573;SDS011;1801;51.050;6.246;2023-07-31T09:54:51;5.50;;;2.60;;
3573;SDS011;1801;51.050;6.246;2023-07-31T09:57:16;7.53;;;3.80;;
3573;SDS011;1801;51.050;6.246;2023-07-31T09:59:42;7.90;;;4.10;;
3573;SDS011;1801;51.050;6.246;2023-07-31T10:02:08;11.20;;;3.00;;
3573;SDS011;1801;51.050;6.246;2023-07-31T10:04:35;5.90;;;3.13;;
3573;SDS011;1801;51.050;6.246;2023-07-31T10:07:00;8.00;;;3.10;;
3573;SDS011;1801;51.050;6.246;2023-07-31T10:09:27;5.30;;;3.00;;
3573;SDS011;1801;51.050;6.246;2023-07-31T10:11:55;12.03;;;3.33;;
3573;SDS011;1801;51.050;6.246;2023-07-31T10:14:24;8.33;;;3.27;;
3573;SDS011;1801;51.050;6.246;2023-07-31T10:16:51;11.40;;;3.07;;
3573;SDS011;1801;51.050;6.246;2023-07-31T10:19:17;8.23;;;3.37;;
3573;SDS011;1801;51.050;6.246;2023-07-31T10:21:43;10.00;;;3.70;;
3573;SDS011;1801;51.050;6.246;2023-07-31T10:24:08;5.80;;;3.10;;
3573;SDS011;1801;51.050;6.246;2023-07-31T10:26:34;7.03;;;3.30;;
3573;SDS011;1801;51.050;6.246;2023-07-31T10:29:00;5.27;;;3.20;;
3573;SDS011;1801;51.050;6.246;2023-07-31T10:31:26;6.60;;;2.73;;
3573;SDS011;1801;51.050;6.246;2023-07-31T10:33:52;9.00;;;5.00;;
3573;SDS011;1801;51.050;6.246;2023-07-31T10:36:18;5.80;;;2.40;;
3573;SDS011;1801;51.050;6.246;2023-07-31T10:38:44;5.13;;;2.50;;
3573;SDS011;1801;51.050;6.246;2023-07-31T10:41:09;3.90;;;2.20;;
3573;SDS011;1801;51.050;6.246;2023-07-31T10:43:35;3.23;;;2.00;;
3573;SDS011;1801;51.050;6.246;2023-07-31T10:46:01;3.90;;;2.70;;
3573;SDS011;1801;51.050;6.246;2023-07-31T10:48:32;3.37;;;1.60;;
3573;SDS011;1801;51.050;6.246;2023-07-31T10:50:58;1.83;;;1.27;;
3573;SDS011;1801;51.050;6.246;2023-07-31T10:53:24;3.47;;;1.20;;
3573;SDS011;1801;51.050;6.246;2023-07-31T10:55:50;1.73;;;1.50;;
3573;SDS011;1801;51.050;6.246;2023-07-31T10:58:19;4.40;;;1.13;;
3573;SDS011;1801;51.050;6.246;2023-07-31T11:00:44;2.73;;;1.40;;
3573;SDS011;1801;51.050;6.246;2023-07-31T11:10:41;2.93;;;1.60;;
3573;SDS011;1801;51.050;6.246;2023-07-31T11:13:07;3.20;;;1.40;;
3573;SDS011;1801;51.050;6.246;2023-07-31T11:15:32;2.00;;;1.37;;
3573;SDS011;1801;51.050;6.246;2023-07-31T11:17:57;7.07;;;1.67;;
3573;SDS011;1801;51.050;6.246;2023-07-31T11:20:23;4.90;;;2.03;;
3573;SDS011;1801;51.050;6.246;2023-07-31T11:22:49;3.00;;;1.70;;
3573;SDS011;1801;51.050;6.246;2023-07-31T11:25:14;4.10;;;2.70;;
3573;SDS011;1801;51.050;6.246;2023-07-31T11:27:39;3.00;;;1.70;;
3573;SDS011;1801;51.050;6.246;2023-07-31T11:30:08;2.10;;;1.40;;
3573;SDS011;1801;51.050;6.246;2023-07-31T11:32:35;3.53;;;1.87;;
3573;SDS011;1801;51.050;6.246;2023-07-31T11:35:01;6.37;;;2.30;;
3573;SDS011;1801;51.050;6.246;2023-07-31T11:37:38;4.10;;;1.83;;
3573;SDS011;1801;51.050;6.246;2023-07-31T11:40:03;3.67;;;2.20;;
3573;SDS011;1801;51.050;6.246;2023-07-31T11:42:29;3.00;;;1.40;;
3573;SDS011;1801;51.050;6.246;2023-07-31T11:44:54;3.70;;;2.30;;
3573;SDS011;1801;51.050;6.246;2023-07-31T11:47:19;3.27;;;1.90;;
3573;SDS011;1801;51.050;6.246;2023-07-31T11:49:45;4.37;;;2.30;;
3573;SDS011;1801;51.050;6.246;2023-07-31T11:52:10;4.73;;;2.47;;
3573;SDS011;1801;51.050;6.246;2023-07-31T11:54:36;7.20;;;2.63;;
3573;SDS011;1801;51.050;6.246;2023-07-31T11:57:01;5.43;;;2.00;;
3573;SDS011;1801;51.050;6.246;2023-07-31T11:59:26;3.07;;;2.43;;
3573;SDS011;1801;51.050;6.246;2023-07-31T12:01:52;5.67;;;2.90;;
3573;SDS011;1801;51.050;6.246;2023-07-31T12:04:18;7.40;;;2.93;;
3573;SDS011;1801;51.050;6.246;2023-07-31T12:06:44;6.03;;;2.67;;
3573;SDS011;1801;51.050;6.246;2023-07-31T12:09:09;7.20;;;2.43;;
3573;SDS011;1801;51.050;6.246;2023-07-31T12:11:44;8.33;;;2.83;;
3573;SDS011;1801;51.050;6.246;2023-07-31T12:16:47;5.67;;;3.73;;
3573;SDS011;1801;51.050;6.246;2023-07-31T12:19:12;5.53;;;3.27;;
3573;SDS011;1801;51.050;6.246;2023-07-31T12:21:37;7.13;;;4.30;;
3573;SDS011;1801;51.050;6.246;2023-07-31T12:24:03;6.90;;;3.70;;
3573;SDS011;1801;51.050;6.246;2023-07-31T12:26:33;9.90;;;3.60;;
3573;SDS011;1801;51.050;6.246;2023-07-31T12:28:58;7.27;;;3.73;;
3573;SDS011;1801;51.050;6.246;2023-07-31T12:31:24;5.33;;;2.70;;
3573;SDS011;1801;51.050;6.246;2023-07-31T12:33:52;6.30;;;2.93;;
3573;SDS011;1801;51.050;6.246;2023-07-31T12:36:19;7.10;;;3.20;;
3573;SDS011;1801;51.050;6.246;2023-07-31T12:38:45;7.17;;;2.77;;
3573;SDS011;1801;51.050;6.246;2023-07-31T12:41:10;7.30;;;3.67;;
3573;SDS011;1801;51.050;6.246;2023-07-31T12:43:36;6.57;;;3.10;;
3573;SDS011;1801;51.050;6.246;2023-07-31T12:46:01;8.40;;;3.13;;
3573;SDS011;1801;51.050;6.246;2023-07-31T12:48:26;9.50;;;3.20;;
3573;SDS011;1801;51.050;6.246;2023-07-31T12:50:54;10.83;;;3.67;;
3573;SDS011;1801;51.050;6.246;2023-07-31T12:53:19;5.17;;;3.37;;
3573;SDS011;1801;51.050;6.246;2023-07-31T12:55:45;5.30;;;3.20;;
3573;SDS011;1801;51.050;6.246;2023-07-31T12:58:10;8.60;;;3.00;;
3573;SDS011;1801;51.050;6.246;2023-07-31T13:00:35;8.50;;;3.90;;
3573;SDS011;1801;51.050;6.246;2023-07-31T13:03:00;6.10;;;2.80;;
3573;SDS011;1801;51.050;6.246;2023-07-31T13:05:26;4.83;;;3.00;;
3573;SDS011;1801;51.050;6.246;2023-07-31T13:07:51;7.97;;;3.37;;
3573;SDS011;1801;51.050;6.246;2023-07-31T13:10:16;8.40;;;3.60;;
3573;SDS011;1801;51.050;6.246;2023-07-31T13:12:41;5.90;;;2.83;;
3573;SDS011;1801;51.050;6.246;2023-07-31T13:15:07;7.70;;;4.30;;
3573;SDS011;1801;51.050;6.246;2023-07-31T13:17:32;8.23;;;3.10;;
3573;SDS011;1801;51.050;6.246;2023-07-31T13:19:58;5.83;;;2.93;;
3573;SDS011;1801;51.050;6.246;2023-07-31T13:22:23;4.10;;;2.77;;
3573;SDS011;1801;51.050;6.246;2023-07-31T13:24:48;6.20;;;3.20;;
3573;SDS011;1801;51.050;6.246;2023-07-31T13:27:14;6.67;;;3.70;;
3573;SDS011;1801;51.050;6.246;2023-07-31T13:29:43;7.37;;;2.83;;
3573;SDS011;1801;51.050;6.246;2023-07-31T13:32:08;6.57;;;3.50;;
3573;SDS011;1801;51.050;6.246;2023-07-31T13:34:33;4.27;;;2.90;;
3573;SDS011;1801;51.050;6.246;2023-07-31T13:36:58;6.13;;;2.73;;
3573;SDS011;1801;51.050;6.246;2023-07-31T13:39:24;4.70;;;2.60;;
3573;SDS011;1801;51.050;6.246;2023-07-31T13:41:49;6.67;;;2.80;;
3573;SDS011;1801;51.050;6.246;2023-07-31T13:44:14;7.90;;;3.20;;
3573;SDS011;1801;51.050;6.246;2023-07-31T13:46:39;3.40;;;2.50;;
3573;SDS011;1801;51.050;6.246;2023-07-31T13:49:05;4.30;;;2.70;;
3573;SDS011;1801;51.050;6.246;2023-07-31T13:51:30;7.67;;;2.80;;
3573;SDS011;1801;51.050;6.246;2023-07-31T13:53:55;4.53;;;3.30;;
3573;SDS011;1801;51.050;6.246;2023-07-31T13:56:20;3.83;;;2.63;;
3573;SDS011;1801;51.050;6.246;2023-07-31T13:58:45;5.37;;;2.80;;
3573;SDS011;1801;51.050;6.246;2023-07-31T14:01:11;8.97;;;2.90;;
3573;SDS011;1801;51.050;6.246;2023-07-31T14:03:36;3.37;;;2.30;;
3573;SDS011;1801;51.050;6.246;2023-07-31T14:06:01;3.63;;;2.47;;
3573;SDS011;1801;51.050;6.246;2023-07-31T14:08:26;13.13;;;3.30;;
3573;SDS011;1801;51.050;6.246;2023-07-31T14:10:52;6.40;;;3.30;;
3573;SDS011;1801;51.050;6.246;2023-07-31T14:13:17;6.57;;;2.57;;
3573;SDS011;1801;51.050;6.246;2023-07-31T14:15:42;7.17;;;3.13;;
3573;SDS011;1801;51.050;6.246;2023-07-31T14:18:10;4.20;;;2.80;;
3573;SDS011;1801;51.050;6.246;2023-07-31T14:20:35;7.77;;;3.60;;
3573;SDS011;1801;51.050;6.246;2023-07-31T14:23:03;12.43;;;3.23;;
3573;SDS011;1801;51.050;6.246;2023-07-31T14:25:29;6.60;;;3.37;;
3573;SDS011;1801;51.050;6.246;2023-07-31T14:27:54;3.97;;;2.87;;
3573;SDS011;1801;51.050;6.246;2023-07-31T14:30:19;9.40;;;3.00;;
3573;SDS011;1801;51.050;6.246;2023-07-31T14:32:45;8.63;;;3.70;;
3573;SDS011;1801;51.050;6.246;2023-07-31T14:35:10;5.50;;;3.53;;
3573;SDS011;1801;51.050;6.246;2023-07-31T14:37:39;9.90;;;3.90;;
3573;SDS011;1801;51.050;6.246;2023-07-31T14:40:04;5.47;;;3.53;;
3573;SDS011;1801;51.050;6.246;2023-07-31T14:42:30;6.00;;;3.43;;
3573;SDS011;1801;51.050;6.246;2023-07-31T14:44:55;7.23;;;3.93;;
3573;SDS011;1801;51.050;6.246;2023-07-31T14:47:20;5.30;;;3.63;;
3573;SDS011;1801;51.050;6.246;2023-07-31T14:49:45;10.63;;;3.50;;
3573;SDS011;1801;51.050;6.246;2023-07-31T14:52:11;6.47;;;3.27;;
3573;SDS011;1801;51.050;6.246;2023-07-31T14:54:36;8.30;;;3.73;;
3573;SDS011;1801;51.050;6.246;2023-07-31T14:57:01;8.73;;;3.80;;
3573;SDS011;1801;51.050;6.246;2023-07-31T14:59:26;5.40;;;3.57;;
3573;SDS011;1801;51.050;6.246;2023-07-31T15:01:51;8.30;;;3.63;;
3573;SDS011;1801;51.050;6.246;2023-07-31T15:04:17;6.33;;;3.23;;
3573;SDS011;1801;51.050;6.246;2023-07-31T15:06:42;6.50;;;3.60;;
3573;SDS011;1801;51.050;6.246;2023-07-31T15:09:07;10.73;;;3.53;;
3573;SDS011;1801;51.050;6.246;2023-07-31T15:11:32;13.13;;;3.53;;
3573;SDS011;1801;51.050;6.246;2023-07-31T15:13:57;5.20;;;3.40;;
3573;SDS011;1801;51.050;6.246;2023-07-31T15:16:23;7.00;;;3.33;;
3573;SDS011;1801;51.050;6.246;2023-07-31T15:18:48;8.40;;;4.00;;
3573;SDS011;1801;51.050;6.246;2023-07-31T15:21:13;9.80;;;2.97;;